Time;durP1;ratioP1;P1;durP2;ratioP2;P2;SDS_P1;SDS_P2;PMS_P1;PMS_P2;Temp;Humidity;BMP_temperature;BMP_pressure;BME280_temperature;BME280_humidity;BME280_pressure;Samples;Min_cycle;Max_cycle;Signal;HPM_P1;HPM_P2
2022/11/22 00:01:05;;;;;;;1.20;0.73;;;;;;;11.05;65.35;98312.25;5156601;27;20171;-92
2022/11/22 00:03:30;;;;;;;1.67;0.63;;;;;;;11.12;66.19;98312.66;5155925;27;20611;-92
2022/11/22 00:05:57;;;;;;;1.63;0.60;;;;;;;11.12;65.40;98312.66;5155466;27;20171;-92
2022/11/22 00:08:22;;;;;;;1.27;0.70;;;;;;;10.97;64.00;98311.09;5155352;27;20220;-91
2022/11/22 00:10:48;;;;;;;1.07;0.57;;;;;;;10.99;63.98;98317.06;5155186;27;20174;-92
2022/11/22 00:13:18;;;;;;;1.03;0.60;;;;;;;11.03;63.96;98316.75;5155002;27;20191;-92
2022/11/22 00:15:44;;;;;;;0.47;0.37;;;;;;;10.97;64.32;98329.44;5155925;27;20210;-92
2022/11/22 00:18:10;;;;;;;2.93;1.00;;;;;;;10.85;65.45;98317.13;5154892;27;20186;-93
2022/11/22 00:20:36;;;;;;;0.93;0.60;;;;;;;10.92;65.35;98315.81;5156216;27;20171;-91
2022/11/22 00:23:03;;;;;;;0.80;0.60;;;;;;;10.84;65.53;98336.44;5155779;27;20610;-92
2022/11/22 00:25:28;;;;;;;1.23;0.90;;;;;;;10.61;66.78;98331.88;5154685;27;20185;-92
2022/11/22 00:27:54;;;;;;;1.40;0.63;;;;;;;10.57;66.47;98326.00;5155916;27;20266;-90
2022/11/22 00:30:19;;;;;;;1.03;0.57;;;;;;;10.58;67.22;98332.09;5155632;27;20174;-92
2022/11/22 00:32:47;;;;;;;0.90;0.63;;;;;;;10.38;67.54;98335.97;5154895;27;20185;-91
2022/11/22 00:35:12;;;;;;;1.23;0.67;;;;;;;10.49;66.93;98341.38;5154736;27;20205;-92
2022/11/22 00:37:38;;;;;;;1.67;0.70;;;;;;;10.45;68.11;98351.19;5155965;27;20535;-92
2022/11/22 00:40:04;;;;;;;1.33;0.70;;;;;;;10.69;67.82;98345.31;5154682;27;20182;-94
2022/11/22 00:42:30;;;;;;;1.30;0.80;;;;;;;10.83;67.62;98358.34;5154675;27;20262;-90
2022/11/22 00:44:56;;;;;;;1.50;0.80;;;;;;;10.64;67.56;98363.13;5154964;27;20627;-93
2022/11/22 00:47:22;;;;;;;1.07;0.93;;;;;;;10.57;66.06;98364.44;5154784;27;20242;-92
2022/11/22 00:49:47;;;;;;;1.87;0.80;;;;;;;10.63;65.89;98358.81;5154901;27;20198;-93
2022/11/22 00:52:13;;;;;;;1.90;1.03;;;;;;;10.68;65.27;98356.75;5155535;27;20632;-92
2022/11/22 00:54:40;;;;;;;1.80;1.00;;;;;;;10.77;63.53;98367.44;5154482;27;20258;-92
2022/11/22 00:57:07;;;;;;;1.00;0.60;;;;;;;10.91;63.49;98361.31;5155701;27;20201;-92
2022/11/22 00:59:33;;;;;;;3.53;1.27;;;;;;;11.17;63.22;98351.69;5154528;27;20178;-92
2022/11/22 01:02:00;;;;;;;2.07;1.00;;;;;;;11.34;62.48;98354.88;5154716;27;20182;-93
2022/11/22 01:04:27;;;;;;;1.53;0.73;;;;;;;11.35;62.55;98347.81;5154649;27;20309;-92
2022/11/22 01:06:54;;;;;;;1.23;0.70;;;;;;;11.31;62.89;98343.75;5154852;27;20615;-92
2022/11/22 01:09:22;;;;;;;2.60;1.40;;;;;;;11.23;63.71;98346.88;5154405;27;20185;-92
2022/11/22 01:11:49;;;;;;;1.67;0.77;;;;;;;11.27;63.54;98350.16;5154389;27;20174;-93
2022/11/22 01:14:16;;;;;;;3.23;1.00;;;;;;;11.15;64.18;98357.06;5155519;27;20175;-92
2022/11/22 01:16:42;;;;;;;2.00;1.37;;;;;;;11.04;65.71;98367.41;5155265;27;20190;-92
2022/11/22 01:19:08;;;;;;;2.20;1.10;;;;;;;10.90;65.17;98370.13;5154367;27;20177;-94
2022/11/22 01:21:34;;;;;;;1.97;1.07;;;;;;;10.81;64.31;98381.22;5154305;27;20178;-93
2022/11/22 01:24:01;;;;;;;2.63;1.20;;;;;;;10.74;63.29;98387.81;5154248;27;20326;-92
2022/11/22 01:26:26;;;;;;;2.13;1.10;;;;;;;10.75;63.84;98392.09;5155135;27;20170;-93
2022/11/22 01:28:52;;;;;;;2.27;1.00;;;;;;;10.86;62.63;98389.59;5154256;27;20545;-92
2022/11/22 01:31:19;;;;;;;1.27;0.70;;;;;;;10.88;62.53;98385.09;5154276;27;20735;-94
2022/11/22 01:33:44;;;;;;;1.03;0.60;;;;;;;10.95;61.96;98383.78;5155680;27;20596;-93
2022/11/22 01:36:10;;;;;;;1.83;0.90;;;;;;;11.15;61.97;98391.16;5154464;27;20194;-94
2022/11/22 01:38:36;;;;;;;2.57;1.30;;;;;;;11.21;61.13;98392.53;5155000;27;20178;-93
2022/11/22 01:41:02;;;;;;;2.13;1.13;;;;;;;11.42;61.29;98388.47;5155313;27;20231;-94
2022/11/22 01:43:28;;;;;;;2.60;1.30;;;;;;;11.23;60.93;98401.97;5155091;27;20171;-94
2022/11/22 01:45:59;;;;;;;4.17;1.10;;;;;;;11.20;61.12;98386.44;5155548;27;20174;-94
2022/11/22 01:48:28;;;;;;;2.57;1.20;;;;;;;10.98;61.91;98401.91;5154239;27;20257;-92
2022/11/22 01:50:59;;;;;;;2.20;1.10;;;;;;;11.09;62.01;98407.28;5154040;27;20179;-93
2022/11/22 01:53:32;;;;;;;2.00;1.23;;;;;;;10.99;61.87;98406.22;5154651;27;20162;-94
2022/11/22 01:56:03;;;;;;;2.47;1.23;;;;;;;11.05;62.08;98411.06;5154753;27;20194;-93
2022/11/22 01:58:33;;;;;;;1.53;0.90;;;;;;;11.12;61.82;98404.47;5140966;27;20637;-94
2022/11/22 02:01:00;;;;;;;2.53;1.47;;;;;;;11.00;61.58;98402.66;5157889;27;20600;-93
2022/11/22 02:03:28;;;;;;;3.17;1.17;;;;;;;10.71;60.32;98398.47;5157795;27;20182;-94
2022/11/22 02:05:54;;;;;;;1.80;1.07;;;;;;;10.67;60.92;98413.56;5157753;27;20192;-93
2022/11/22 02:08:43;;;;;;;3.40;1.03;;;;;;;10.97;60.97;98405.47;5157598;27;20174;-93
2022/11/22 02:11:11;;;;;;;3.63;1.40;;;;;;;11.04;60.38;98414.63;5157616;27;20170;-94
2022/11/22 02:13:41;;;;;;;8.47;1.30;;;;;;;11.14;60.22;98414.88;5157712;27;20182;-93
2022/11/22 02:16:08;;;;;;;3.10;1.37;;;;;;;11.22;59.47;98421.25;5159116;27;20205;-92
2022/11/22 02:18:35;;;;;;;2.50;1.03;;;;;;;11.30;59.67;98426.00;5157261;27;20208;-92
2022/11/22 02:21:04;;;;;;;1.63;1.13;;;;;;;11.22;59.76;98423.03;5157452;27;20611;-93
2022/11/22 02:23:50;;;;;;;1.20;1.00;;;;;;;11.03;58.78;98424.25;5157502;27;20202;-93
2022/11/22 02:26:16;;;;;;;1.53;0.87;;;;;;;11.02;58.74;98416.50;5157920;27;20511;-93
2022/11/22 02:28:42;;;;;;;1.87;0.93;;;;;;;11.13;57.90;98414.03;5157503;27;20170;-93
2022/11/22 02:31:07;;;;;;;1.33;0.90;;;;;;;10.92;57.78;98420.69;5157332;27;20312;-93
2022/11/22 02:33:33;;;;;;;2.47;1.37;;;;;;;11.01;57.82;98412.19;5157026;27;20182;-93
2022/11/22 02:35:59;;;;;;;2.23;1.20;;;;;;;10.96;57.86;98422.16;5157823;27;20650;-94
2022/11/22 02:38:31;;;;;;;2.47;0.97;;;;;;;11.08;57.72;98416.94;5157006;27;20174;-92
2022/11/22 02:41:08;;;;;;;3.37;1.13;;;;;;;11.03;57.80;98412.97;5157139;27;20170;-93
2022/11/22 02:43:38;;;;;;;2.20;1.30;;;;;;;10.80;57.77;98419.69;5158225;27;20197;-94
2022/11/22 02:46:07;;;;;;;2.67;1.00;;;;;;;10.88;58.08;98424.41;5157072;27;20175;-93
2022/11/22 02:48:32;;;;;;;1.77;1.17;;;;;;;10.82;58.05;98427.47;5156929;27;20611;-92
2022/11/22 02:50:58;;;;;;;1.80;1.10;;;;;;;10.87;58.13;98417.50;5157334;27;20202;-93
2022/11/22 02:53:24;;;;;;;2.53;1.10;;;;;;;10.93;58.39;98417.94;5157050;27;20182;-93
2022/11/22 02:55:50;;;;;;;2.37;0.93;;;;;;;10.97;57.93;98415.97;5157539;27;20195;-92
2022/11/22 02:58:16;;;;;;;2.73;1.20;;;;;;;10.83;58.00;98416.88;5157686;27;20167;-93
2022/11/22 03:00:41;;;;;;;2.67;1.30;;;;;;;10.83;57.77;98435.22;5156954;27;20198;-92
2022/11/22 03:03:07;;;;;;;3.23;1.50;;;;;;;10.86;58.02;98421.91;5157980;27;20253;-93
2022/11/22 03:05:32;;;;;;;1.37;0.70;;;;;;;10.79;57.93;98439.00;5156516;27;20166;-93
2022/11/22 03:07:59;;;;;;;1.87;1.00;;;;;;;10.74;57.77;98433.19;5156269;27;20186;-92
2022/11/22 03:10:26;;;;;;;2.27;0.90;;;;;;;10.62;57.77;98435.75;5156430;27;20170;-92
2022/11/22 03:12:52;;;;;;;3.20;1.30;;;;;;;10.51;57.77;98433.81;5157595;27;20166;-93
2022/11/22 03:15:18;;;;;;;1.90;1.10;;;;;;;10.58;57.64;98442.13;5156284;27;20335;-93
2022/11/22 03:17:44;;;;;;;2.13;1.10;;;;;;;10.51;57.67;98443.47;5156093;27;20222;-94
2022/11/22 03:20:09;;;;;;;2.60;1.17;;;;;;;10.61;57.57;98452.44;5157039;27;20175;-93
2022/11/22 03:22:36;;;;;;;1.90;1.10;;;;;;;10.73;57.36;98452.47;5156994;27;20182;-92
2022/11/22 03:25:02;;;;;;;1.20;0.90;;;;;;;10.81;56.96;98454.59;5156202;27;20166;-93
2022/11/22 03:27:27;;;;;;;2.40;1.30;;;;;;;10.77;56.95;98453.94;5156066;27;20670;-94
2022/11/22 03:29:53;;;;;;;2.83;1.20;;;;;;;10.71;57.56;98454.38;5156462;27;20185;-92
2022/11/22 03:32:18;;;;;;;2.20;1.10;;;;;;;10.81;57.57;98454.59;5156004;27;20182;-93
2022/11/22 03:34:45;;;;;;;2.77;1.23;;;;;;;10.80;57.08;98450.28;5156704;27;20223;-93
2022/11/22 03:37:12;;;;;;;2.60;1.37;;;;;;;10.82;57.05;98456.31;5155848;27;20199;-93
2022/11/22 03:39:37;;;;;;;2.50;1.50;;;;;;;10.82;57.08;98457.13;5155955;27;20189;-93
2022/11/22 03:42:03;;;;;;;4.57;1.87;;;;;;;10.86;57.00;98461.25;5156708;27;20166;-92
2022/11/22 03:44:28;;;;;;;2.83;1.63;;;;;;;10.83;57.28;98457.97;5155730;27;20178;-93
2022/11/22 03:46:54;;;;;;;2.57;1.30;;;;;;;10.82;57.11;98466.78;5156800;27;20175;-92
2022/11/22 03:49:19;;;;;;;2.90;1.60;;;;;;;10.67;57.37;98470.34;5155570;27;20191;-93
2022/11/22 03:51:45;;;;;;;2.00;0.97;;;;;;;10.60;58.31;98476.94;5155552;27;20627;-93
2022/11/22 03:54:12;;;;;;;1.90;1.00;;;;;;;10.57;58.76;98477.13;5155511;27;20174;-92
2022/11/22 03:56:37;;;;;;;2.63;1.17;;;;;;;10.37;59.39;98476.63;5156001;27;20635;-93
2022/11/22 03:59:04;;;;;;;2.40;1.20;;;;;;;10.40;59.54;98492.13;5155417;27;20182;-93
2022/11/22 04:01:30;;;;;;;2.20;1.43;;;;;;;10.24;59.74;98495.78;5155452;27;20694;-92
2022/11/22 04:03:55;;;;;;;3.13;1.53;;;;;;;10.15;60.51;98499.81;5156133;27;20258;-92
2022/11/22 04:06:20;;;;;;;4.20;1.10;;;;;;;10.12;60.33;98492.13;5155270;27;20185;-92
2022/11/22 04:08:47;;;;;;;2.33;1.20;;;;;;;10.03;60.68;98492.69;5156116;27;20641;-91
2022/11/22 04:11:13;;;;;;;2.07;1.07;;;;;;;9.89;60.93;98490.03;5155142;27;20674;-92
2022/11/22 04:16:22;;;;;;;3.53;1.47;;;;;;;9.82;61.38;98501.81;5156515;27;20276;-92
2022/11/22 04:18:48;;;;;;;1.73;1.30;;;;;;;9.80;61.27;98493.22;5155954;27;20273;-92
2022/11/22 04:26:43;;;;;;;2.57;1.57;;;;;;;9.77;61.27;98517.78;5156304;27;20276;-92
2022/11/22 04:29:09;;;;;;;1.30;0.97;;;;;;;9.77;60.77;98516.94;5155999;27;20202;-92
2022/11/22 04:34:18;;;;;;;2.40;1.23;;;;;;;9.81;60.81;98521.06;5156360;27;20177;-92
2022/11/22 04:36:43;;;;;;;3.03;1.40;;;;;;;9.77;61.14;98527.41;5154881;27;20614;-92
2022/11/22 04:39:10;;;;;;;2.77;1.40;;;;;;;9.69;61.17;98542.72;5155731;27;20188;-93
2022/11/22 04:41:35;;;;;;;3.60;1.90;;;;;;;9.63;61.19;98540.47;5154731;27;20175;-93
2022/11/22 04:47:00;;;;;;;1.70;1.07;;;;;;;9.56;61.38;98550.44;5121051;27;20204;-93
2022/11/22 04:49:26;;;;;;;2.23;1.23;;;;;;;9.49;61.41;98559.56;5154613;27;20188;-91
2022/11/22 04:54:36;;;;;;;1.93;1.23;;;;;;;8.97;63.48;98566.88;5155763;27;20173;-92
2022/11/22 04:57:03;;;;;;;3.50;1.60;;;;;;;8.85;64.47;98572.78;5154396;27;20166;-92
2022/11/22 04:59:28;;;;;;;2.13;1.33;;;;;;;8.78;64.88;98583.66;5154517;27;20196;-92
2022/11/22 05:01:54;;;;;;;3.07;1.33;;;;;;;8.77;65.32;98584.56;5154547;27;20179;-93
2022/11/22 05:04:19;;;;;;;2.67;1.40;;;;;;;8.89;64.64;98589.97;5155877;27;20180;-92
2022/11/22 05:06:44;;;;;;;2.77;1.37;;;;;;;8.88;64.20;98582.22;5154581;27;20532;-93
2022/11/22 05:09:11;;;;;;;4.10;2.10;;;;;;;8.83;64.65;98579.03;5154486;27;20574;-92
2022/11/22 05:11:36;;;;;;;3.13;1.73;;;;;;;8.72;65.14;98587.44;5154707;27;20229;-93
2022/11/22 05:14:03;;;;;;;3.10;1.53;;;;;;;8.89;64.46;98595.19;5154272;27;20589;-92
2022/11/22 05:16:30;;;;;;;2.83;1.53;;;;;;;8.75;64.63;98602.09;5130590;27;20558;-90
2022/11/22 05:19:00;;;;;;;2.33;1.30;;;;;;;8.74;65.15;98614.31;5132482;27;20863;-90
2022/11/22 05:21:28;;;;;;;2.80;1.70;;;;;;;8.73;64.71;98602.19;5131346;28;20183;-92
2022/11/22 05:23:56;;;;;;;1.80;1.20;;;;;;;8.82;64.61;98609.53;5132770;28;20168;-92
2022/11/22 05:26:34;;;;;;;2.20;1.37;;;;;;;8.70;65.08;98607.56;5132685;28;20539;-93
2022/11/22 05:29:09;;;;;;;5.40;2.23;;;;;;;8.72;65.22;98608.34;5132941;28;20167;-92
2022/11/22 05:31:38;;;;;;;4.10;1.83;;;;;;;8.70;65.71;98604.13;5134123;27;20273;-92
2022/11/22 05:34:05;;;;;;;4.43;1.93;;;;;;;8.82;64.63;98604.31;5137405;27;20183;-92
2022/11/22 05:36:33;;;;;;;3.87;1.90;;;;;;;8.60;65.56;98614.19;5136912;27;20191;-93
2022/11/22 05:39:01;;;;;;;4.23;2.00;;;;;;;8.60;66.08;98609.81;5119965;27;20187;-92
2022/11/22 05:41:28;;;;;;;4.83;2.00;;;;;;;8.48;67.13;98620.09;5137417;27;20173;-94
2022/11/22 05:43:58;;;;;;;2.90;1.53;;;;;;;8.61;66.58;98616.75;5137333;27;20172;-92
2022/11/22 05:46:27;;;;;;;3.57;1.50;;;;;;;8.72;66.22;98623.16;5125068;27;20180;-92
2022/11/22 05:48:56;;;;;;;3.23;1.93;;;;;;;8.79;66.38;98627.13;5116374;28;20247;-92
2022/11/22 05:51:25;;;;;;;2.97;1.67;;;;;;;8.93;65.73;98633.34;5133809;27;20199;-93
2022/11/22 05:53:52;;;;;;;11.93;2.13;;;;;;;9.12;64.99;98638.38;5117023;28;20266;-93
2022/11/22 05:56:21;;;;;;;4.73;2.00;;;;;;;9.14;65.09;98626.94;5116473;28;20196;-92
2022/11/22 05:58:49;;;;;;;3.33;1.63;;;;;;;9.21;65.03;98628.28;5116542;28;20195;-92
2022/11/22 06:01:20;;;;;;;3.03;1.37;;;;;;;9.22;65.26;98631.75;5116445;28;20179;-92
2022/11/22 06:03:47;;;;;;;4.47;2.47;;;;;;;9.11;66.27;98632.34;5116986;28;20207;-92
2022/11/22 06:06:14;;;;;;;33.43;11.00;;;;;;;9.13;66.64;98635.69;5119950;27;20264;-93
2022/11/22 06:08:43;;;;;;;10.23;3.23;;;;;;;9.25;66.96;98645.47;5136917;27;20186;-93
2022/11/22 06:11:14;;;;;;;7.70;3.53;;;;;;;9.77;66.16;98642.56;5133562;27;20663;-93
2022/11/22 06:13:45;;;;;;;16.93;5.73;;;;;;;10.38;64.21;98651.19;5125145;27;20183;-93
2022/11/22 06:16:12;;;;;;;16.03;7.33;;;;;;;10.83;62.90;98651.97;5126648;27;20191;-93
2022/11/22 06:18:38;;;;;;;25.60;9.47;;;;;;;11.06;61.58;98651.38;5136677;27;20179;-94
2022/11/22 06:21:09;;;;;;;18.07;8.00;;;;;;;11.13;61.17;98647.44;5137893;27;20247;-93
2022/11/22 06:23:34;;;;;;;14.20;6.37;;;;;;;11.02;61.14;98639.41;5136850;27;20167;-93
2022/11/22 06:26:04;;;;;;;10.43;4.57;;;;;;;11.25;60.96;98649.28;5136554;27;20194;-94
2022/11/22 06:28:32;;;;;;;14.17;5.73;;;;;;;11.46;60.53;98647.09;5136280;27;20174;-93
2022/11/22 06:31:03;;;;;;;27.87;8.77;;;;;;;11.88;59.88;98648.75;5136744;27;20186;-93
2022/11/22 06:33:29;;;;;;;18.17;7.07;;;;;;;12.39;58.23;98637.41;5135784;27;20198;-94
2022/11/22 06:36:01;;;;;;;9.87;4.07;;;;;;;12.99;56.03;98634.13;5137182;27;20203;-93
2022/11/22 06:38:26;;;;;;;9.60;4.43;;;;;;;13.16;55.60;98636.44;5137631;27;20248;-94
2022/11/22 06:40:52;;;;;;;14.87;4.00;;;;;;;13.16;55.43;98636.44;5136513;27;20580;-93
2022/11/22 06:43:17;;;;;;;8.17;3.83;;;;;;;13.24;54.92;98645.47;5136259;27;20184;-94
2022/11/22 06:45:43;;;;;;;8.53;3.73;;;;;;;13.36;53.07;98660.38;5136245;27;20196;-94
2022/11/22 06:48:08;;;;;;;6.20;3.87;;;;;;;13.37;53.01;98680.50;5136222;27;20270;-94
2022/11/22 06:50:34;;;;;;;8.03;4.27;;;;;;;13.60;53.18;98688.56;5137568;27;20192;-94
2022/11/22 06:52:59;;;;;;;12.57;5.07;;;;;;;14.01;51.86;98695.13;5136087;27;20258;-94
2022/11/22 06:55:25;;;;;;;11.43;5.20;;;;;;;14.39;50.63;98691.47;5136391;27;20213;-94
2022/11/22 06:57:50;;;;;;;10.57;5.33;;;;;;;14.71;50.16;98688.09;5136102;27;20539;-94
2022/11/22 07:00:16;;;;;;;8.37;4.43;;;;;;;14.93;49.31;98689.06;5137020;27;20228;-94
2022/11/22 07:02:42;;;;;;;10.73;4.63;;;;;;;14.89;47.29;98696.38;5135945;27;20182;-95
2022/11/22 07:05:07;;;;;;;10.70;4.30;;;;;;;14.84;47.79;98700.31;5135921;27;20175;-94
2022/11/22 07:07:33;;;;;;;10.07;3.60;;;;;;;14.61;46.99;98699.44;5135811;27;20212;-93
2022/11/22 07:09:58;;;;;;;7.53;3.80;;;;;;;14.50;47.26;98691.50;5135853;27;20562;-95
2022/11/22 07:12:25;;;;;;;7.27;3.40;;;;;;;14.43;47.65;98693.78;5136571;27;20188;-94
2022/11/22 07:14:50;;;;;;;7.17;2.90;;;;;;;14.35;47.38;98692.66;5135625;27;20269;-93
2022/11/22 07:17:16;;;;;;;5.23;2.60;;;;;;;14.29;47.93;98691.28;5135536;27;20204;-94
2022/11/22 07:19:41;;;;;;;32.13;11.90;;;;;;;14.15;47.16;98691.47;5135705;27;20182;-93
2022/11/22 07:22:07;;;;;;;6.93;3.37;;;;;;;14.09;47.47;98697.22;5135540;27;20624;-94
2022/11/22 07:24:32;;;;;;;3.40;1.30;;;;;;;13.92;47.75;98690.53;5135461;27;20171;-93
2022/11/22 07:26:57;;;;;;;2.83;0.97;;;;;;;13.73;48.02;98690.19;5135415;27;20616;-94
2022/11/22 07:29:23;;;;;;;3.23;1.67;;;;;;;13.77;49.05;98696.06;5135417;27;20695;-94
2022/11/22 07:31:48;;;;;;;2.17;1.10;;;;;;;13.69;48.80;98688.72;5135338;27;20267;-94
2022/11/22 07:34:14;;;;;;;6.07;2.33;;;;;;;13.82;47.34;98686.88;5152618;27;20181;-95
2022/11/22 07:36:39;;;;;;;3.37;1.40;;;;;;;13.83;48.97;98691.22;5135219;27;20195;-94
2022/11/22 07:39:05;;;;;;;3.40;1.13;;;;;;;13.89;49.37;98692.53;5135307;27;20201;-94
2022/11/22 07:41:30;;;;;;;2.27;1.13;;;;;;;13.92;49.41;98690.53;5136053;27;20612;-95
2022/11/22 07:43:56;;;;;;;2.43;1.10;;;;;;;14.04;49.45;98687.00;5135085;27;20562;-94
2022/11/22 07:46:25;;;;;;;5.10;1.40;;;;;;;14.09;48.66;98692.78;5135125;27;20190;-94
2022/11/22 07:48:51;;;;;;;2.37;1.00;;;;;;;14.07;48.97;98701.75;5135013;27;20179;-95
2022/11/22 07:51:16;;;;;;;1.80;1.10;;;;;;;14.20;49.45;98705.16;5135732;27;20173;-94
2022/11/22 07:53:42;;;;;;;2.57;1.13;;;;;;;14.23;48.60;98704.09;5134810;27;20210;-94
2022/11/22 07:56:07;;;;;;;2.57;0.90;;;;;;;14.32;48.73;98709.56;5134544;27;20660;-94
2022/11/22 07:58:34;;;;;;;2.83;1.10;;;;;;;14.40;48.05;98704.53;5134816;27;20179;-93
2022/11/22 08:01:15;;;;;;;3.03;1.33;;;;;;;14.53;47.91;98704.47;5134815;27;20282;-94
2022/11/22 08:03:42;;;;;;;2.90;1.20;;;;;;;14.64;48.12;98700.06;5134780;27;20175;-94
2022/11/22 08:06:09;;;;;;;2.23;1.07;;;;;;;14.60;47.80;98706.50;5134668;27;20176;-94
2022/11/22 08:08:36;;;;;;;3.03;1.30;;;;;;;14.89;47.75;98692.88;5134696;27;20177;-94
2022/11/22 08:11:02;;;;;;;2.20;1.30;;;;;;;15.04;48.01;98695.19;5134627;27;20175;-95
2022/11/22 08:13:29;;;;;;;3.67;1.10;;;;;;;15.11;48.73;98690.28;5134626;27;20653;-93
2022/11/22 08:15:54;;;;;;;4.53;1.27;;;;;;;15.22;48.42;98680.56;5134519;27;20205;-93
2022/11/22 08:18:20;;;;;;;1.57;0.87;;;;;;;15.30;47.41;98683.41;5134451;27;20194;-94
2022/11/22 08:20:46;;;;;;;1.83;0.90;;;;;;;15.39;47.57;98695.06;5134368;27;20187;-94
2022/11/22 08:23:11;;;;;;;1.30;0.80;;;;;;;15.32;46.94;98689.44;5134441;27;20187;-95
2022/11/22 08:25:37;;;;;;;1.97;1.00;;;;;;;15.31;47.36;98695.69;5135149;27;20691;-94
2022/11/22 08:28:02;;;;;;;2.43;1.10;;;;;;;15.41;46.33;98708.97;5151703;27;20189;-95
2022/11/22 08:30:28;;;;;;;4.43;1.47;;;;;;;15.40;47.68;98709.97;5134315;27;20331;-95
2022/11/22 08:32:54;;;;;;;2.77;1.80;;;;;;;15.57;49.38;98700.72;5134153;27;20627;-95
2022/11/22 08:35:20;;;;;;;3.17;1.27;;;;;;;15.74;46.96;98702.88;5134453;27;20738;-94
2022/11/22 08:37:45;;;;;;;8.27;2.13;;;;;;;15.80;47.74;98689.16;5134162;27;20202;-95
2022/11/22 08:40:11;;;;;;;3.17;1.20;;;;;;;15.88;45.81;98684.06;5134094;27;20229;-93
2022/11/22 08:42:36;;;;;;;3.70;1.37;;;;;;;15.85;46.82;98690.44;5134158;27;20182;-95
2022/11/22 08:45:02;;;;;;;3.80;1.50;;;;;;;16.05;47.01;98686.19;5134050;27;20181;-94
2022/11/22 08:47:28;;;;;;;4.23;1.10;;;;;;;16.03;44.79;98676.72;5133951;27;20182;-95
2022/11/22 08:49:53;;;;;;;3.80;1.17;;;;;;;16.21;45.53;98680.50;5133888;27;20167;-94
2022/11/22 08:52:18;;;;;;;1.50;0.87;;;;;;;16.28;43.29;98666.63;5133920;27;20182;-94
2022/11/22 08:54:44;;;;;;;2.13;0.60;;;;;;;16.34;41.66;98670.56;5133978;27;20624;-94
2022/11/22 08:57:09;;;;;;;1.87;0.80;;;;;;;16.41;41.94;98671.72;5133873;27;20238;-94
2022/11/22 08:59:35;;;;;;;1.10;0.70;;;;;;;16.59;42.05;98670.22;5134424;27;20178;-94
2022/11/22 09:02:00;;;;;;;1.17;0.60;;;;;;;16.69;42.44;98660.56;5134749;27;20634;-95
2022/11/22 09:04:26;;;;;;;1.73;0.60;;;;;;;16.71;40.69;98650.66;5133846;28;20193;-94
2022/11/22 09:06:51;;;;;;;2.03;0.80;;;;;;;16.73;41.63;98646.06;5135368;27;20167;-95
2022/11/22 09:09:17;;;;;;;3.20;1.10;;;;;;;16.85;41.45;98631.78;5138298;27;20206;-94
2022/11/22 09:11:42;;;;;;;1.07;0.50;;;;;;;17.03;41.31;98632.84;5138146;27;20190;-94
2022/11/22 09:14:08;;;;;;;1.67;0.63;;;;;;;17.34;40.58;98625.72;5138199;27;20182;-95
2022/11/22 09:16:33;;;;;;;3.07;1.20;;;;;;;17.52;42.23;98617.94;5138806;27;20186;-94
2022/11/22 09:18:59;;;;;;;2.10;1.00;;;;;;;17.60;39.36;98604.88;5137896;27;20277;-95
2022/11/22 09:21:25;;;;;;;4.00;1.53;;;;;;;17.68;38.73;98613.81;5138339;27;20648;-94
2022/11/22 09:23:52;;;;;;;2.47;1.10;;;;;;;17.17;40.47;98619.25;5137901;27;20208;-94
2022/11/22 09:26:23;;;;;;;2.30;1.23;;;;;;;17.21;39.95;98614.53;5137685;27;20172;-94
2022/11/22 09:28:48;;;;;;;2.03;1.10;;;;;;;17.56;40.91;98611.41;5137815;27;20182;-94
2022/11/22 09:31:19;;;;;;;5.10;1.07;;;;;;;17.43;39.62;98606.34;5137576;27;20172;-94
2022/11/22 09:33:45;;;;;;;2.60;1.07;;;;;;;17.37;41.81;98608.72;5155184;27;20195;-95
2022/11/22 09:36:12;;;;;;;1.50;0.77;;;;;;;17.43;40.77;98593.09;5138101;27;20291;-94
2022/11/22 09:38:40;;;;;;;4.90;1.73;;;;;;;17.56;41.88;98580.44;5137568;27;20183;-95
2022/11/22 09:41:15;;;;;;;2.13;1.00;;;;;;;17.55;41.46;98585.91;5137530;27;20176;-95
2022/11/22 09:43:56;;;;;;;2.93;0.93;;;;;;;17.78;42.17;98572.25;5138017;27;20199;-94
2022/11/22 09:46:30;;;;;;;1.53;0.80;;;;;;;17.83;41.00;98568.34;5137552;27;20604;-95
2022/11/22 09:48:58;;;;;;;2.50;0.90;;;;;;;17.91;40.34;98568.47;5137617;27;20167;-94
2022/11/22 09:51:35;;;;;;;2.90;0.70;;;;;;;17.98;39.78;98558.97;5137465;27;20485;-96
2022/11/22 09:54:07;;;;;;;2.57;1.10;;;;;;;17.91;39.93;98553.41;5137513;27;20181;-96
2022/11/22 09:56:33;;;;;;;4.53;1.03;;;;;;;17.44;41.29;98565.63;5137184;27;20283;-95
2022/11/22 09:59:12;;;;;;;1.70;0.70;;;;;;;17.62;40.68;98571.97;5137253;27;20261;-94
2022/11/22 10:01:44;;;;;;;1.40;0.90;;;;;;;17.81;39.51;98571.13;5154730;27;20173;-94
2022/11/22 10:04:20;;;;;;;3.27;1.27;;;;;;;18.11;40.25;98563.00;5137115;27;20191;-95
2022/11/22 10:06:52;;;;;;;2.10;0.60;;;;;;;18.23;39.24;98561.06;5137124;27;20182;-95
2022/11/22 10:09:53;;;;;;;2.03;0.87;;;;;;;18.36;38.85;98561.59;5137208;27;20250;-94
2022/11/22 10:12:25;;;;;;;1.53;0.53;;;;;;;18.29;39.13;98556.00;5105776;27;20200;-95
2022/11/22 10:15:09;;;;;;;2.60;0.90;;;;;;;18.49;37.82;98556.00;5154321;27;20250;-95
2022/11/22 10:17:44;;;;;;;1.47;0.60;;;;;;;18.49;37.58;98556.00;5136644;27;20195;-95
2022/11/22 10:20:15;;;;;;;1.73;0.80;;;;;;;18.38;37.61;98557.81;5136814;27;20326;-95
2022/11/22 10:22:41;;;;;;;2.10;0.67;;;;;;;18.57;38.89;98554.28;5136740;27;20319;-95
2022/11/22 10:25:21;;;;;;;1.47;0.80;;;;;;;18.68;38.05;98545.31;5136918;27;20266;-95
2022/11/22 10:27:52;;;;;;;2.27;0.77;;;;;;;18.76;38.73;98548.09;5137356;27;20201;-95
2022/11/22 10:30:20;;;;;;;2.00;0.67;;;;;;;18.64;37.89;98550.06;5137508;27;20160;-94
2022/11/22 10:33:14;;;;;;;2.47;0.80;;;;;;;18.49;38.14;98540.06;5136933;27;20789;-94
2022/11/22 10:36:01;;;;;;;1.23;0.50;;;;;;;18.39;38.51;98543.53;5137158;27;20550;-95
2022/11/22 10:39:18;;;;;;;1.73;0.90;;;;;;;18.47;38.06;98526.94;5137217;27;20178;-95
2022/11/22 10:42:11;;;;;;;0.90;0.50;;;;;;;18.62;38.32;98529.97;5039603;28;20213;-95
2022/11/22 10:44:48;;;;;;;1.50;0.67;;;;;;;18.69;38.68;98515.94;5134518;27;20191;-96
2022/11/22 10:47:53;;;;;;;0.93;0.50;;;;;;;18.66;38.31;98516.25;5137030;27;20227;-96
2022/11/22 10:50:35;;;;;;;1.37;0.60;;;;;;;18.54;38.30;98505.97;5134296;27;20210;-94
2022/11/22 10:53:16;;;;;;;1.30;0.60;;;;;;;18.54;38.05;98512.13;5132523;27;20252;-96
2022/11/22 10:56:08;;;;;;;2.10;0.70;;;;;;;18.61;38.25;98517.66;5136428;27;20241;-95
2022/11/22 10:59:11;;;;;;;1.47;0.70;;;;;;;18.50;38.62;98516.03;5140832;27;20239;-96
2022/11/22 11:02:00;;;;;;;1.37;0.70;;;;;;;18.75;39.48;98520.69;5054662;28;20606;-95
2022/11/22 11:04:37;;;;;;;4.93;1.30;;;;;;;18.77;39.58;98518.72;5131731;27;20187;-95
2022/11/22 11:07:05;;;;;;;2.70;1.00;;;;;;;19.02;39.41;98525.16;5134721;27;20156;-96
2022/11/22 11:09:58;;;;;;;1.63;0.70;;;;;;;19.20;38.68;98512.75;5135282;27;20541;-96
2022/11/22 11:12:48;;;;;;;3.03;0.70;;;;;;;18.86;38.17;98501.91;5135239;27;20701;-95
2022/11/22 11:15:40;;;;;;;2.00;0.60;;;;;;;18.94;37.93;98498.50;5135533;27;20272;-95
2022/11/22 11:18:18;;;;;;;2.70;1.03;;;;;;;19.39;38.64;98487.91;5102494;27;20572;-95
2022/11/22 11:20:50;;;;;;;1.93;0.70;;;;;;;19.54;37.83;98486.38;5118365;27;20243;-95
2022/11/22 11:23:16;;;;;;;1.17;0.50;;;;;;;19.52;38.14;98483.03;5120620;27;20176;-96
2022/11/22 11:25:46;;;;;;;1.50;0.53;;;;;;;19.66;38.38;98473.66;5116018;28;20587;-95
2022/11/22 11:28:19;;;;;;;0.97;0.40;;;;;;;19.83;37.94;98471.00;5116572;28;20505;-95
2022/11/22 11:30:50;;;;;;;4.13;0.80;;;;;;;19.82;37.42;98469.31;5113567;28;20191;-95
2022/11/22 11:33:25;;;;;;;1.43;0.80;;;;;;;19.98;36.96;98468.59;5114573;28;20663;-95
2022/11/22 11:35:54;;;;;;;1.40;0.70;;;;;;;20.01;37.18;98469.13;5114676;28;20199;-95
2022/11/22 11:38:41;;;;;;;0.83;0.50;;;;;;;19.96;37.15;98459.94;5114081;28;20274;-95
2022/11/22 11:41:29;;;;;;;1.47;0.73;;;;;;;19.83;37.44;98457.72;5114621;28;20200;-95
2022/11/22 11:43:57;;;;;;;1.80;0.80;;;;;;;19.77;37.79;98449.50;5114598;28;20163;-96
2022/11/22 11:46:25;;;;;;;4.30;0.87;;;;;;;19.79;37.49;98450.16;5114290;28;20171;-95
2022/11/22 11:48:55;;;;;;;1.13;0.57;;;;;;;19.60;37.96;98448.56;5114170;28;20655;-95
2022/11/22 11:51:25;;;;;;;1.60;0.67;;;;;;;19.39;37.82;98434.75;5114091;28;20168;-95
2022/11/22 11:53:58;;;;;;;1.53;0.77;;;;;;;19.24;38.32;98434.41;5113601;28;20279;-95
2022/11/22 11:56:32;;;;;;;2.83;0.90;;;;;;;19.36;38.65;98429.69;5113614;28;20207;-95
2022/11/22 11:59:02;;;;;;;3.37;1.37;;;;;;;19.36;38.77;98437.66;5114465;28;20565;-95